sensor_id;sensor_type;location;lat;lon;timestamp;P1;durP1;ratioP1;P2;durP2;ratioP2
33254;SDS011;19623;52.482;9.762;2022-12-11T00:01:32;25.77;;;13.10;;
33254;SDS011;19623;52.482;9.762;2022-12-11T00:03:57;26.77;;;13.02;;
33254;SDS011;19623;52.482;9.762;2022-12-11T00:06:23;26.65;;;12.82;;
33254;SDS011;19623;52.482;9.762;2022-12-11T00:08:52;28.17;;;12.57;;
33254;SDS011;19623;52.482;9.762;2022-12-11T00:11:19;26.47;;;12.17;;
33254;SDS011;19623;52.482;9.762;2022-12-11T00:13:45;26.52;;;12.38;;
33254;SDS011;19623;52.482;9.762;2022-12-11T00:16:11;25.73;;;12.50;;
33254;SDS011;19623;52.482;9.762;2022-12-11T00:18:37;24.92;;;12.00;;
33254;SDS011;19623;52.482;9.762;2022-12-11T00:21:03;28.00;;;12.52;;
33254;SDS011;19623;52.482;9.762;2022-12-11T00:23:30;28.98;;;12.88;;
33254;SDS011;19623;52.482;9.762;2022-12-11T00:25:56;24.38;;;11.80;;
33254;SDS011;19623;52.482;9.762;2022-12-11T00:28:22;24.30;;;12.55;;
33254;SDS011;19623;52.482;9.762;2022-12-11T00:30:47;24.55;;;12.27;;
33254;SDS011;19623;52.482;9.762;2022-12-11T00:33:14;24.08;;;11.82;;
33254;SDS011;19623;52.482;9.762;2022-12-11T00:35:40;24.40;;;11.45;;
33254;SDS011;19623;52.482;9.762;2022-12-11T00:38:07;25.63;;;12.07;;
33254;SDS011;19623;52.482;9.762;2022-12-11T00:40:33;26.45;;;12.93;;
33254;SDS011;19623;52.482;9.762;2022-12-11T00:43:00;22.75;;;11.45;;
33254;SDS011;19623;52.482;9.762;2022-12-11T00:45:25;24.42;;;11.90;;
33254;SDS011;19623;52.482;9.762;2022-12-11T00:47:51;25.80;;;11.57;;
33254;SDS011;19623;52.482;9.762;2022-12-11T00:50:17;27.02;;;12.48;;
33254;SDS011;19623;52.482;9.762;2022-12-11T00:52:42;25.58;;;12.63;;
33254;SDS011;19623;52.482;9.762;2022-12-11T00:55:08;22.98;;;11.43;;
33254;SDS011;19623;52.482;9.762;2022-12-11T00:57:34;27.02;;;11.98;;
33254;SDS011;19623;52.482;9.762;2022-12-11T01:00:00;25.90;;;12.70;;
33254;SDS011;19623;52.482;9.762;2022-12-11T01:02:26;27.15;;;12.60;;
33254;SDS011;19623;52.482;9.762;2022-12-11T01:04:51;26.85;;;12.55;;
33254;SDS011;19623;52.482;9.762;2022-12-11T01:07:17;29.45;;;13.75;;
33254;SDS011;19623;52.482;9.762;2022-12-11T01:09:43;23.65;;;12.70;;
33254;SDS011;19623;52.482;9.762;2022-12-11T01:12:27;27.40;;;12.27;;
33254;SDS011;19623;52.482;9.762;2022-12-11T01:14:53;24.55;;;12.00;;
33254;SDS011;19623;52.482;9.762;2022-12-11T01:17:19;26.63;;;13.07;;
33254;SDS011;19623;52.482;9.762;2022-12-11T01:19:44;25.50;;;12.88;;
33254;SDS011;19623;52.482;9.762;2022-12-11T01:22:10;26.17;;;11.90;;
33254;SDS011;19623;52.482;9.762;2022-12-11T01:24:36;23.60;;;11.60;;
33254;SDS011;19623;52.482;9.762;2022-12-11T01:27:02;26.75;;;12.27;;
33254;SDS011;19623;52.482;9.762;2022-12-11T01:29:28;22.65;;;11.05;;
33254;SDS011;19623;52.482;9.762;2022-12-11T01:31:54;23.38;;;11.30;;
33254;SDS011;19623;52.482;9.762;2022-12-11T01:34:19;25.15;;;11.80;;
33254;SDS011;19623;52.482;9.762;2022-12-11T01:36:45;22.77;;;11.68;;
33254;SDS011;19623;52.482;9.762;2022-12-11T01:39:11;21.73;;;11.40;;
33254;SDS011;19623;52.482;9.762;2022-12-11T01:41:36;22.65;;;11.63;;
33254;SDS011;19623;52.482;9.762;2022-12-11T01:44:06;25.42;;;11.90;;
33254;SDS011;19623;52.482;9.762;2022-12-11T01:46:52;24.20;;;11.93;;
33254;SDS011;19623;52.482;9.762;2022-12-11T01:49:19;25.00;;;12.93;;
33254;SDS011;19623;52.482;9.762;2022-12-11T01:52:02;26.17;;;12.77;;
33254;SDS011;19623;52.482;9.762;2022-12-11T01:54:33;24.67;;;11.75;;
33254;SDS011;19623;52.482;9.762;2022-12-11T01:57:03;26.35;;;12.25;;
33254;SDS011;19623;52.482;9.762;2022-12-11T01:59:32;22.85;;;11.48;;
33254;SDS011;19623;52.482;9.762;2022-12-11T02:02:05;26.45;;;12.73;;
33254;SDS011;19623;52.482;9.762;2022-12-11T02:04:39;22.88;;;11.50;;
33254;SDS011;19623;52.482;9.762;2022-12-11T02:07:06;26.60;;;11.38;;
33254;SDS011;19623;52.482;9.762;2022-12-11T02:09:33;22.70;;;11.40;;
33254;SDS011;19623;52.482;9.762;2022-12-11T02:14:43;23.23;;;11.50;;
33254;SDS011;19623;52.482;9.762;2022-12-11T02:17:15;22.27;;;11.25;;
33254;SDS011;19623;52.482;9.762;2022-12-11T02:19:50;23.98;;;11.02;;
33254;SDS011;19623;52.482;9.762;2022-12-11T02:27:53;21.95;;;11.07;;
33254;SDS011;19623;52.482;9.762;2022-12-11T02:30:39;25.17;;;11.82;;
33254;SDS011;19623;52.482;9.762;2022-12-11T02:33:07;21.17;;;11.20;;
33254;SDS011;19623;52.482;9.762;2022-12-11T02:35:37;22.15;;;11.35;;
33254;SDS011;19623;52.482;9.762;2022-12-11T02:40:50;24.33;;;12.02;;
33254;SDS011;19623;52.482;9.762;2022-12-11T02:43:18;21.73;;;10.23;;
33254;SDS011;19623;52.482;9.762;2022-12-11T02:45:45;25.50;;;11.95;;
33254;SDS011;19623;52.482;9.762;2022-12-11T02:48:13;24.05;;;11.15;;
33254;SDS011;19623;52.482;9.762;2022-12-11T02:50:47;25.13;;;11.93;;
33254;SDS011;19623;52.482;9.762;2022-12-11T02:53:17;20.25;;;10.68;;
33254;SDS011;19623;52.482;9.762;2022-12-11T02:55:46;23.33;;;11.65;;
33254;SDS011;19623;52.482;9.762;2022-12-11T02:58:22;22.77;;;10.52;;
33254;SDS011;19623;52.482;9.762;2022-12-11T03:00:52;22.38;;;10.85;;
33254;SDS011;19623;52.482;9.762;2022-12-11T03:03:18;24.58;;;11.35;;
33254;SDS011;19623;52.482;9.762;2022-12-11T03:05:43;24.00;;;11.85;;
33254;SDS011;19623;52.482;9.762;2022-12-11T03:08:10;25.95;;;10.55;;
33254;SDS011;19623;52.482;9.762;2022-12-11T03:10:36;22.65;;;10.20;;
33254;SDS011;19623;52.482;9.762;2022-12-11T03:13:01;23.15;;;11.45;;
33254;SDS011;19623;52.482;9.762;2022-12-11T03:18:12;22.60;;;11.35;;
33254;SDS011;19623;52.482;9.762;2022-12-11T03:20:44;24.52;;;11.85;;
33254;SDS011;19623;52.482;9.762;2022-12-11T03:23:27;21.02;;;11.18;;
33254;SDS011;19623;52.482;9.762;2022-12-11T03:26:02;22.52;;;11.20;;
33254;SDS011;19623;52.482;9.762;2022-12-11T03:28:31;22.15;;;11.55;;
33254;SDS011;19623;52.482;9.762;2022-12-11T03:31:10;22.33;;;11.10;;
33254;SDS011;19623;52.482;9.762;2022-12-11T03:33:42;21.23;;;10.77;;
33254;SDS011;19623;52.482;9.762;2022-12-11T03:36:13;23.15;;;12.32;;
33254;SDS011;19623;52.482;9.762;2022-12-11T03:38:55;21.17;;;11.23;;
33254;SDS011;19623;52.482;9.762;2022-12-11T03:41:25;23.10;;;11.23;;
33254;SDS011;19623;52.482;9.762;2022-12-11T03:43:55;24.45;;;11.40;;
33254;SDS011;19623;52.482;9.762;2022-12-11T03:46:22;24.77;;;11.77;;
33254;SDS011;19623;52.482;9.762;2022-12-11T03:48:53;23.52;;;12.13;;
33254;SDS011;19623;52.482;9.762;2022-12-11T03:51:22;26.50;;;11.57;;
33254;SDS011;19623;52.482;9.762;2022-12-11T03:53:49;23.77;;;11.85;;
33254;SDS011;19623;52.482;9.762;2022-12-11T03:56:16;22.05;;;10.85;;
33254;SDS011;19623;52.482;9.762;2022-12-11T03:58:44;28.70;;;11.98;;
33254;SDS011;19623;52.482;9.762;2022-12-11T04:01:10;23.42;;;11.43;;
33254;SDS011;19623;52.482;9.762;2022-12-11T04:03:36;22.77;;;10.68;;
33254;SDS011;19623;52.482;9.762;2022-12-11T04:06:02;24.35;;;10.98;;
33254;SDS011;19623;52.482;9.762;2022-12-11T04:08:28;25.70;;;12.00;;
33254;SDS011;19623;52.482;9.762;2022-12-11T04:10:54;24.70;;;12.13;;
33254;SDS011;19623;52.482;9.762;2022-12-11T04:13:38;26.65;;;11.57;;
33254;SDS011;19623;52.482;9.762;2022-12-11T04:16:05;27.40;;;12.20;;
33254;SDS011;19623;52.482;9.762;2022-12-11T04:18:32;24.10;;;12.25;;
33254;SDS011;19623;52.482;9.762;2022-12-11T04:21:16;23.13;;;12.05;;
33254;SDS011;19623;52.482;9.762;2022-12-11T04:24:01;27.02;;;11.88;;
33254;SDS011;19623;52.482;9.762;2022-12-11T04:26:39;21.40;;;10.52;;
33254;SDS011;19623;52.482;9.762;2022-12-11T04:29:06;22.35;;;11.50;;
33254;SDS011;19623;52.482;9.762;2022-12-11T04:31:31;21.88;;;10.80;;
33254;SDS011;19623;52.482;9.762;2022-12-11T04:33:57;23.58;;;11.90;;
33254;SDS011;19623;52.482;9.762;2022-12-11T04:36:23;24.70;;;11.65;;
33254;SDS011;19623;52.482;9.762;2022-12-11T04:38:48;24.60;;;11.73;;
33254;SDS011;19623;52.482;9.762;2022-12-11T04:41:14;25.05;;;11.70;;
33254;SDS011;19623;52.482;9.762;2022-12-11T04:43:41;22.85;;;11.13;;
33254;SDS011;19623;52.482;9.762;2022-12-11T04:46:10;23.30;;;11.90;;
33254;SDS011;19623;52.482;9.762;2022-12-11T04:48:36;27.48;;;13.18;;
33254;SDS011;19623;52.482;9.762;2022-12-11T04:51:02;27.13;;;12.20;;
33254;SDS011;19623;52.482;9.762;2022-12-11T04:53:29;24.85;;;11.70;;
33254;SDS011;19623;52.482;9.762;2022-12-11T04:55:55;23.70;;;11.63;;
33254;SDS011;19623;52.482;9.762;2022-12-11T04:58:21;26.23;;;12.75;;
33254;SDS011;19623;52.482;9.762;2022-12-11T05:00:48;23.55;;;11.50;;
33254;SDS011;19623;52.482;9.762;2022-12-11T05:03:13;24.77;;;12.50;;
33254;SDS011;19623;52.482;9.762;2022-12-11T05:05:39;25.38;;;12.73;;
33254;SDS011;19623;52.482;9.762;2022-12-11T05:08:05;26.05;;;13.00;;
33254;SDS011;19623;52.482;9.762;2022-12-11T05:10:32;26.65;;;12.30;;
33254;SDS011;19623;52.482;9.762;2022-12-11T05:12:57;24.05;;;11.73;;
33254;SDS011;19623;52.482;9.762;2022-12-11T05:15:23;25.17;;;12.15;;
33254;SDS011;19623;52.482;9.762;2022-12-11T05:17:49;25.88;;;12.20;;
33254;SDS011;19623;52.482;9.762;2022-12-11T05:20:14;27.70;;;12.80;;
33254;SDS011;19623;52.482;9.762;2022-12-11T05:22:40;26.73;;;12.93;;
33254;SDS011;19623;52.482;9.762;2022-12-11T05:25:06;27.05;;;13.15;;
33254;SDS011;19623;52.482;9.762;2022-12-11T05:27:32;26.00;;;12.18;;
33254;SDS011;19623;52.482;9.762;2022-12-11T05:29:58;29.05;;;13.15;;
33254;SDS011;19623;52.482;9.762;2022-12-11T05:32:24;26.35;;;12.60;;
33254;SDS011;19623;52.482;9.762;2022-12-11T05:34:49;26.52;;;12.65;;
33254;SDS011;19623;52.482;9.762;2022-12-11T05:37:15;28.98;;;13.10;;
33254;SDS011;19623;52.482;9.762;2022-12-11T05:39:41;26.40;;;13.75;;
33254;SDS011;19623;52.482;9.762;2022-12-11T05:42:07;27.90;;;13.57;;
33254;SDS011;19623;52.482;9.762;2022-12-11T05:44:33;26.75;;;13.85;;
33254;SDS011;19623;52.482;9.762;2022-12-11T05:46:58;29.85;;;13.88;;
33254;SDS011;19623;52.482;9.762;2022-12-11T05:49:24;26.23;;;12.70;;
33254;SDS011;19623;52.482;9.762;2022-12-11T05:51:50;28.88;;;13.90;;
33254;SDS011;19623;52.482;9.762;2022-12-11T05:54:16;31.75;;;14.40;;
33254;SDS011;19623;52.482;9.762;2022-12-11T05:56:41;27.40;;;13.88;;
33254;SDS011;19623;52.482;9.762;2022-12-11T05:59:07;26.17;;;12.48;;
33254;SDS011;19623;52.482;9.762;2022-12-11T06:01:34;29.65;;;14.10;;
33254;SDS011;19623;52.482;9.762;2022-12-11T06:04:02;33.70;;;15.43;;
33254;SDS011;19623;52.482;9.762;2022-12-11T06:06:29;40.92;;;18.98;;
33254;SDS011;19623;52.482;9.762;2022-12-11T06:08:55;31.50;;;14.70;;
33254;SDS011;19623;52.482;9.762;2022-12-11T06:11:22;38.15;;;17.35;;
33254;SDS011;19623;52.482;9.762;2022-12-11T06:13:49;32.60;;;15.82;;
33254;SDS011;19623;52.482;9.762;2022-12-11T06:16:16;31.33;;;15.35;;
33254;SDS011;19623;52.482;9.762;2022-12-11T06:18:42;33.28;;;16.33;;
33254;SDS011;19623;52.482;9.762;2022-12-11T06:21:28;32.15;;;15.43;;
33254;SDS011;19623;52.482;9.762;2022-12-11T06:23:56;35.15;;;15.65;;
33254;SDS011;19623;52.482;9.762;2022-12-11T06:26:23;29.73;;;14.85;;
33254;SDS011;19623;52.482;9.762;2022-12-11T06:28:50;33.03;;;14.57;;
33254;SDS011;19623;52.482;9.762;2022-12-11T06:31:15;30.67;;;14.73;;
33254;SDS011;19623;52.482;9.762;2022-12-11T06:33:42;30.98;;;14.38;;
33254;SDS011;19623;52.482;9.762;2022-12-11T06:36:10;30.23;;;14.52;;
33254;SDS011;19623;52.482;9.762;2022-12-11T06:38:37;32.15;;;15.23;;
33254;SDS011;19623;52.482;9.762;2022-12-11T06:41:04;30.30;;;14.52;;
33254;SDS011;19623;52.482;9.762;2022-12-11T06:43:31;34.67;;;14.73;;
33254;SDS011;19623;52.482;9.762;2022-12-11T06:46:10;28.95;;;14.57;;
33254;SDS011;19623;52.482;9.762;2022-12-11T06:48:40;33.75;;;14.80;;
33254;SDS011;19623;52.482;9.762;2022-12-11T06:51:09;33.08;;;15.23;;
33254;SDS011;19623;52.482;9.762;2022-12-11T06:53:36;29.85;;;14.63;;
33254;SDS011;19623;52.482;9.762;2022-12-11T06:56:12;36.05;;;14.63;;
33254;SDS011;19623;52.482;9.762;2022-12-11T06:58:39;31.10;;;14.70;;
33254;SDS011;19623;52.482;9.762;2022-12-11T07:01:14;29.42;;;14.07;;
33254;SDS011;19623;52.482;9.762;2022-12-11T07:03:42;31.95;;;14.77;;
33254;SDS011;19623;52.482;9.762;2022-12-11T07:06:08;30.85;;;14.93;;
33254;SDS011;19623;52.482;9.762;2022-12-11T07:08:33;36.08;;;16.58;;
33254;SDS011;19623;52.482;9.762;2022-12-11T07:11:06;33.28;;;15.75;;
33254;SDS011;19623;52.482;9.762;2022-12-11T07:13:36;31.83;;;15.88;;
33254;SDS011;19623;52.482;9.762;2022-12-11T07:16:02;31.38;;;14.57;;
33254;SDS011;19623;52.482;9.762;2022-12-11T07:18:30;30.98;;;14.80;;
33254;SDS011;19623;52.482;9.762;2022-12-11T07:20:57;30.52;;;14.55;;
33254;SDS011;19623;52.482;9.762;2022-12-11T07:23:24;26.25;;;13.32;;
33254;SDS011;19623;52.482;9.762;2022-12-11T07:25:51;32.78;;;15.88;;
33254;SDS011;19623;52.482;9.762;2022-12-11T07:28:16;34.53;;;16.77;;
33254;SDS011;19623;52.482;9.762;2022-12-11T07:30:42;29.98;;;15.35;;
33254;SDS011;19623;52.482;9.762;2022-12-11T07:33:08;29.65;;;14.48;;
33254;SDS011;19623;52.482;9.762;2022-12-11T07:35:34;29.63;;;14.93;;
33254;SDS011;19623;52.482;9.762;2022-12-11T07:38:00;27.13;;;14.15;;
33254;SDS011;19623;52.482;9.762;2022-12-11T07:40:26;31.13;;;14.57;;
33254;SDS011;19623;52.482;9.762;2022-12-11T07:42:51;29.33;;;14.20;;
33254;SDS011;19623;52.482;9.762;2022-12-11T07:45:17;30.00;;;14.25;;
33254;SDS011;19623;52.482;9.762;2022-12-11T07:47:43;30.00;;;15.10;;
33254;SDS011;19623;52.482;9.762;2022-12-11T07:50:09;28.02;;;14.35;;
33254;SDS011;19623;52.482;9.762;2022-12-11T07:52:34;27.42;;;14.10;;
33254;SDS011;19623;52.482;9.762;2022-12-11T07:55:00;27.42;;;14.00;;
33254;SDS011;19623;52.482;9.762;2022-12-11T07:57:26;26.70;;;13.52;;
33254;SDS011;19623;52.482;9.762;2022-12-11T07:59:52;29.05;;;13.75;;
33254;SDS011;19623;52.482;9.762;2022-12-11T08:02:18;27.48;;;14.57;;
33254;SDS011;19623;52.482;9.762;2022-12-11T08:04:44;28.45;;;14.07;;
33254;SDS011;19623;52.482;9.762;2022-12-11T08:07:09;31.30;;;14.70;;
33254;SDS011;19623;52.482;9.762;2022-12-11T08:09:36;31.63;;;15.32;;
33254;SDS011;19623;52.482;9.762;2022-12-11T08:12:02;25.73;;;13.38;;
33254;SDS011;19623;52.482;9.762;2022-12-11T08:14:28;25.48;;;13.25;;
33254;SDS011;19623;52.482;9.762;2022-12-11T08:16:53;28.15;;;14.05;;
33254;SDS011;19623;52.482;9.762;2022-12-11T08:19:21;28.33;;;13.32;;
33254;SDS011;19623;52.482;9.762;2022-12-11T08:21:47;25.27;;;13.10;;
33254;SDS011;19623;52.482;9.762;2022-12-11T08:24:12;26.98;;;12.55;;
33254;SDS011;19623;52.482;9.762;2022-12-11T08:26:40;24.20;;;12.65;;
33254;SDS011;19623;52.482;9.762;2022-12-11T08:29:06;30.65;;;14.73;;
33254;SDS011;19623;52.482;9.762;2022-12-11T08:31:32;26.52;;;13.52;;
33254;SDS011;19623;52.482;9.762;2022-12-11T08:33:58;29.83;;;14.02;;
33254;SDS011;19623;52.482;9.762;2022-12-11T08:36:24;30.30;;;14.10;;
33254;SDS011;19623;52.482;9.762;2022-12-11T08:38:50;25.55;;;12.65;;
33254;SDS011;19623;52.482;9.762;2022-12-11T08:41:20;30.08;;;13.20;;
33254;SDS011;19623;52.482;9.762;2022-12-11T08:43:55;28.27;;;13.38;;
33254;SDS011;19623;52.482;9.762;2022-12-11T08:46:23;28.40;;;14.65;;
33254;SDS011;19623;52.482;9.762;2022-12-11T08:48:54;30.05;;;14.35;;
33254;SDS011;19623;52.482;9.762;2022-12-11T08:51:21;25.05;;;13.55;;
33254;SDS011;19623;52.482;9.762;2022-12-11T08:53:48;30.45;;;14.43;;
33254;SDS011;19623;52.482;9.762;2022-12-11T08:56:16;27.30;;;13.40;;
33254;SDS011;19623;52.482;9.762;2022-12-11T08:58:43;28.65;;;14.43;;
33254;SDS011;19623;52.482;9.762;2022-12-11T09:01:20;26.85;;;13.95;;
33254;SDS011;19623;52.482;9.762;2022-12-11T09:03:56;27.80;;;14.63;;
33254;SDS011;19623;52.482;9.762;2022-12-11T09:06:23;30.73;;;13.52;;
33254;SDS011;19623;52.482;9.762;2022-12-11T09:08:53;28.55;;;12.88;;
33254;SDS011;19623;52.482;9.762;2022-12-11T09:11:23;27.80;;;13.05;;
33254;SDS011;19623;52.482;9.762;2022-12-11T09:13:53;26.80;;;12.65;;
33254;SDS011;19623;52.482;9.762;2022-12-11T09:16:22;29.42;;;13.85;;
33254;SDS011;19623;52.482;9.762;2022-12-11T09:18:50;30.98;;;15.00;;
33254;SDS011;19623;52.482;9.762;2022-12-11T09:21:21;29.17;;;14.25;;
33254;SDS011;19623;52.482;9.762;2022-12-11T09:23:52;30.02;;;14.18;;
33254;SDS011;19623;52.482;9.762;2022-12-11T09:26:22;27.85;;;13.60;;
33254;SDS011;19623;52.482;9.762;2022-12-11T09:28:49;30.67;;;14.25;;
33254;SDS011;19623;52.482;9.762;2022-12-11T09:31:27;30.83;;;15.07;;
33254;SDS011;19623;52.482;9.762;2022-12-11T09:33:58;28.48;;;13.57;;
33254;SDS011;19623;52.482;9.762;2022-12-11T09:36:26;28.85;;;12.75;;
33254;SDS011;19623;52.482;9.762;2022-12-11T09:38:58;29.20;;;13.95;;
33254;SDS011;19623;52.482;9.762;2022-12-11T09:41:31;29.30;;;13.38;;
33254;SDS011;19623;52.482;9.762;2022-12-11T09:50:09;26.70;;;13.20;;
33254;SDS011;19623;52.482;9.762;2022-12-11T09:55:28;27.73;;;13.07;;
33254;SDS011;19623;52.482;9.762;2022-12-11T09:58:23;30.02;;;14.75;;
33254;SDS011;19623;52.482;9.762;2022-12-11T10:09:32;30.50;;;15.02;;
33254;SDS011;19623;52.482;9.762;2022-12-11T10:12:26;27.15;;;13.20;;
33254;SDS011;19623;52.482;9.762;2022-12-11T10:17:42;27.70;;;14.38;;
33254;SDS011;19623;52.482;9.762;2022-12-11T10:22:55;27.27;;;13.48;;
33254;SDS011;19623;52.482;9.762;2022-12-11T10:25:26;34.70;;;16.63;;
33254;SDS011;19623;52.482;9.762;2022-12-11T10:28:11;58.80;;;24.17;;
33254;SDS011;19623;52.482;9.762;2022-12-11T10:30:56;90.90;;;38.67;;
33254;SDS011;19623;52.482;9.762;2022-12-11T10:36:26;35.78;;;16.98;;
33254;SDS011;19623;52.482;9.762;2022-12-11T10:38:58;84.78;;;32.47;;
33254;SDS011;19623;52.482;9.762;2022-12-11T10:41:37;44.08;;;19.55;;
33254;SDS011;19623;52.482;9.762;2022-12-11T10:44:16;26.17;;;13.10;;
33254;SDS011;19623;52.482;9.762;2022-12-11T10:46:42;25.77;;;13.52;;
33254;SDS011;19623;52.482;9.762;2022-12-11T10:49:25;31.45;;;14.13;;
33254;SDS011;19623;52.482;9.762;2022-12-11T10:51:56;34.63;;;15.45;;
33254;SDS011;19623;52.482;9.762;2022-12-11T10:54:28;33.85;;;15.30;;
33254;SDS011;19623;52.482;9.762;2022-12-11T10:56:56;26.55;;;13.52;;
33254;SDS011;19623;52.482;9.762;2022-12-11T10:59:23;31.08;;;14.30;;
33254;SDS011;19623;52.482;9.762;2022-12-11T11:02:30;26.23;;;12.93;;
33254;SDS011;19623;52.482;9.762;2022-12-11T11:05:09;31.90;;;15.45;;
33254;SDS011;19623;52.482;9.762;2022-12-11T11:07:40;32.33;;;14.35;;
33254;SDS011;19623;52.482;9.762;2022-12-11T11:12:42;27.55;;;12.35;;
33254;SDS011;19623;52.482;9.762;2022-12-11T11:15:28;33.80;;;13.15;;
33254;SDS011;19623;52.482;9.762;2022-12-11T11:17:55;29.83;;;13.93;;
33254;SDS011;19623;52.482;9.762;2022-12-11T11:20:26;28.98;;;13.35;;
33254;SDS011;19623;52.482;9.762;2022-12-11T11:22:55;28.58;;;13.85;;
33254;SDS011;19623;52.482;9.762;2022-12-11T11:25:26;31.67;;;13.70;;
33254;SDS011;19623;52.482;9.762;2022-12-11T11:27:55;42.75;;;17.27;;
33254;SDS011;19623;52.482;9.762;2022-12-11T11:30:35;38.10;;;16.95;;
33254;SDS011;19623;52.482;9.762;2022-12-11T11:33:14;33.67;;;16.08;;
33254;SDS011;19623;52.482;9.762;2022-12-11T11:38:45;27.40;;;12.85;;
33254;SDS011;19623;52.482;9.762;2022-12-11T11:41:19;26.08;;;13.10;;
33254;SDS011;19623;52.482;9.762;2022-12-11T11:43:56;35.90;;;15.48;;
33254;SDS011;19623;52.482;9.762;2022-12-11T11:46:32;30.75;;;13.75;;
33254;SDS011;19623;52.482;9.762;2022-12-11T11:52:17;28.95;;;12.32;;
33254;SDS011;19623;52.482;9.762;2022-12-11T12:00:24;25.60;;;11.05;;
33254;SDS011;19623;52.482;9.762;2022-12-11T12:02:55;22.60;;;10.82;;
33254;SDS011;19623;52.482;9.762;2022-12-11T12:05:26;24.17;;;9.88;;
33254;SDS011;19623;52.482;9.762;2022-12-11T12:08:11;23.77;;;10.45;;
33254;SDS011;19623;52.482;9.762;2022-12-11T12:11:01;26.58;;;10.50;;
33254;SDS011;19623;52.482;9.762;2022-12-11T12:21:52;27.63;;;12.38;;
33254;SDS011;19623;52.482;9.762;2022-12-11T12:26:58;25.92;;;12.48;;
33254;SDS011;19623;52.482;9.762;2022-12-11T12:32:30;31.25;;;13.35;;
33254;SDS011;19623;52.482;9.762;2022-12-11T12:38:13;29.67;;;12.55;;
33254;SDS011;19623;52.482;9.762;2022-12-11T12:51:59;30.70;;;13.65;;
33254;SDS011;19623;52.482;9.762;2022-12-11T12:54:26;26.33;;;11.95;;
33254;SDS011;19623;52.482;9.762;2022-12-11T12:56:56;24.38;;;11.63;;
33254;SDS011;19623;52.482;9.762;2022-12-11T12:59:25;27.35;;;12.57;;
33254;SDS011;19623;52.482;9.762;2022-12-11T13:01:58;25.95;;;11.95;;
33254;SDS011;19623;52.482;9.762;2022-12-11T13:04:27;25.75;;;11.90;;
33254;SDS011;19623;52.482;9.762;2022-12-11T13:06:53;23.98;;;11.45;;
33254;SDS011;19623;52.482;9.762;2022-12-11T13:09:24;26.77;;;11.98;;
33254;SDS011;19623;52.482;9.762;2022-12-11T13:11:53;27.77;;;12.02;;
33254;SDS011;19623;52.482;9.762;2022-12-11T13:17:37;22.88;;;11.43;;
33254;SDS011;19623;52.482;9.762;2022-12-11T13:19:45;24.80;;;11.32;;
33254;SDS011;19623;52.482;9.762;2022-12-11T13:22:20;30.50;;;11.70;;
33254;SDS011;19623;52.482;9.762;2022-12-11T13:25:15;25.70;;;11.75;;
33254;SDS011;19623;52.482;9.762;2022-12-11T13:28:03;25.92;;;12.43;;
33254;SDS011;19623;52.482;9.762;2022-12-11T13:30:35;25.92;;;12.63;;
33254;SDS011;19623;52.482;9.762;2022-12-11T13:33:02;27.42;;;12.25;;
33254;SDS011;19623;52.482;9.762;2022-12-11T13:35:31;27.60;;;12.48;;
33254;SDS011;19623;52.482;9.762;2022-12-11T13:38:02;26.40;;;11.63;;
33254;SDS011;19623;52.482;9.762;2022-12-11T13:43:21;27.02;;;11.70;;
33254;SDS011;19623;52.482;9.762;2022-12-11T13:45:54;27.48;;;12.68;;
33254;SDS011;19623;52.482;9.762;2022-12-11T13:48:31;27.02;;;11.98;;
33254;SDS011;19623;52.482;9.762;2022-12-11T13:51:03;26.38;;;12.55;;
33254;SDS011;19623;52.482;9.762;2022-12-11T13:53:30;26.10;;;11.65;;
33254;SDS011;19623;52.482;9.762;2022-12-11T13:55:57;25.75;;;11.88;;
33254;SDS011;19623;52.482;9.762;2022-12-11T13:58:28;26.52;;;11.50;;
33254;SDS011;19623;52.482;9.762;2022-12-11T14:01:09;27.95;;;12.05;;
33254;SDS011;19623;52.482;9.762;2022-12-11T14:03:49;21.80;;;10.90;;
33254;SDS011;19623;52.482;9.762;2022-12-11T14:06:19;23.98;;;10.80;;
33254;SDS011;19623;52.482;9.762;2022-12-11T14:08:47;27.83;;;10.77;;
33254;SDS011;19623;52.482;9.762;2022-12-11T14:11:19;22.10;;;10.90;;
33254;SDS011;19623;52.482;9.762;2022-12-11T14:13:47;21.42;;;9.50;;
33254;SDS011;19623;52.482;9.762;2022-12-11T14:16:18;26.13;;;11.60;;
33254;SDS011;19623;52.482;9.762;2022-12-11T14:18:47;23.10;;;10.05;;
33254;SDS011;19623;52.482;9.762;2022-12-11T14:21:23;23.20;;;10.32;;
33254;SDS011;19623;52.482;9.762;2022-12-11T14:24:04;25.77;;;10.65;;
33254;SDS011;19623;52.482;9.762;2022-12-11T14:26:34;21.98;;;10.18;;
33254;SDS011;19623;52.482;9.762;2022-12-11T14:29:04;21.83;;;10.03;;
33254;SDS011;19623;52.482;9.762;2022-12-11T14:31:32;19.25;;;10.38;;
33254;SDS011;19623;52.482;9.762;2022-12-11T14:34:46;21.20;;;9.90;;
33254;SDS011;19623;52.482;9.762;2022-12-11T14:37:07;21.40;;;10.65;;
33254;SDS011;19623;52.482;9.762;2022-12-11T14:39:40;23.25;;;11.18;;
33254;SDS011;19623;52.482;9.762;2022-12-11T14:42:19;22.92;;;10.60;;
33254;SDS011;19623;52.482;9.762;2022-12-11T14:44:50;22.13;;;10.50;;
33254;SDS011;19623;52.482;9.762;2022-12-11T14:47:24;23.92;;;10.82;;
33254;SDS011;19623;52.482;9.762;2022-12-11T14:49:55;27.75;;;10.57;;
33254;SDS011;19623;52.482;9.762;2022-12-11T14:52:38;23.50;;;10.25;;
33254;SDS011;19623;52.482;9.762;2022-12-11T14:55:18;23.65;;;10.63;;
33254;SDS011;19623;52.482;9.762;2022-12-11T14:57:49;24.73;;;10.50;;
33254;SDS011;19623;52.482;9.762;2022-12-11T15:05:46;22.48;;;9.55;;
33254;SDS011;19623;52.482;9.762;2022-12-11T15:08:27;21.92;;;9.32;;
33254;SDS011;19623;52.482;9.762;2022-12-11T15:11:05;24.67;;;10.48;;
33254;SDS011;19623;52.482;9.762;2022-12-11T15:13:50;25.75;;;10.13;;
33254;SDS011;19623;52.482;9.762;2022-12-11T15:16:18;22.50;;;10.05;;
33254;SDS011;19623;52.482;9.762;2022-12-11T15:18:49;23.08;;;9.63;;
33254;SDS011;19623;52.482;9.762;2022-12-11T15:21:16;23.60;;;9.70;;
33254;SDS011;19623;52.482;9.762;2022-12-11T15:23:53;22.05;;;9.75;;
33254;SDS011;19623;52.482;9.762;2022-12-11T15:26:37;21.92;;;9.50;;
33254;SDS011;19623;52.482;9.762;2022-12-11T15:29:05;23.85;;;9.88;;
33254;SDS011;19623;52.482;9.762;2022-12-11T15:31:56;23.70;;;10.27;;
33254;SDS011;19623;52.482;9.762;2022-12-11T15:34:30;26.08;;;10.48;;
33254;SDS011;19623;52.482;9.762;2022-12-11T15:36:58;23.10;;;10.63;;
33254;SDS011;19623;52.482;9.762;2022-12-11T15:39:23;28.67;;;10.85;;
33254;SDS011;19623;52.482;9.762;2022-12-11T15:41:52;22.33;;;10.32;;
33254;SDS011;19623;52.482;9.762;2022-12-11T15:44:19;26.88;;;11.18;;
33254;SDS011;19623;52.482;9.762;2022-12-11T15:46:51;25.33;;;11.40;;
33254;SDS011;19623;52.482;9.762;2022-12-11T15:49:20;24.40;;;10.05;;
33254;SDS011;19623;52.482;9.762;2022-12-11T15:51:48;27.83;;;10.45;;
33254;SDS011;19623;52.482;9.762;2022-12-11T15:54:13;28.30;;;11.40;;
33254;SDS011;19623;52.482;9.762;2022-12-11T15:56:39;26.90;;;10.20;;
33254;SDS011;19623;52.482;9.762;2022-12-11T15:59:05;23.58;;;10.30;;
33254;SDS011;19623;52.482;9.762;2022-12-11T16:01:31;28.60;;;11.20;;
33254;SDS011;19623;52.482;9.762;2022-12-11T16:03:56;25.48;;;11.13;;
33254;SDS011;19623;52.482;9.762;2022-12-11T16:06:25;23.67;;;10.38;;
33254;SDS011;19623;52.482;9.762;2022-12-11T16:08:51;26.95;;;11.43;;
33254;SDS011;19623;52.482;9.762;2022-12-11T16:11:16;23.83;;;10.55;;